In Rescue
 
Open Full Screen Window  High Contrast Mode
October 19, 2020 8:28 PM EDT
Weather Information
Wind Direction
  ---
Wind Speed
  00 kt (0 mph)
Wind Gust
  00 kt (0 mph)
Altimeter
30.21 in
Visibility
10 SM
Temperature
04° C
39° F
Dewpoint
00° C
32° F
Humidity
75%
Sky Condition
Overcast @ 3,200 ft
Broken @ 2,500 ft
MVFR

METAR KMGN 200028Z AUTO 00000KT 10SM BKN025 OVC032 04/00 A3021 RMK AO2 T00460002

FAA Disclaimer: The data displayed is for advisory purposes only and is not to be used for flight planning or operations.